sensor_id;sensor_type;location;lat;lon;timestamp;P1;P2;P0
80289;PMS7003;69592;44.804;-0.550;2023-04-29T00:02:05;1.00;1.00;1.00
80289;PMS7003;69592;44.804;-0.550;2023-04-29T00:04:30;2.00;2.00;2.00
80289;PMS7003;69592;44.804;-0.550;2023-04-29T00:06:56;2.33;1.00;1.00
80289;PMS7003;69592;44.804;-0.550;2023-04-29T00:09:21;2.00;2.00;2.00
80289;PMS7003;69592;44.804;-0.550;2023-04-29T00:11:47;1.00;1.00;1.00
80289;PMS7003;69592;44.804;-0.550;2023-04-29T00:14:14;1.00;1.00;1.00
80289;PMS7003;69592;44.804;-0.550;2023-04-29T00:16:40;1.00;1.00;1.00
80289;PMS7003;69592;44.804;-0.550;2023-04-29T00:19:05;2.00;2.00;2.00
80289;PMS7003;69592;44.804;-0.550;2023-04-29T00:21:31;1.00;1.00;0.67
80289;PMS7003;69592;44.804;-0.550;2023-04-29T00:23:57;0.67;0.67;0.33
80289;PMS7003;69592;44.804;-0.550;2023-04-29T00:26:24;1.67;1.67;1.00
80289;PMS7003;69592;44.804;-0.550;2023-04-29T00:28:49;0.00;0.00;0.00
80289;PMS7003;69592;44.804;-0.550;2023-04-29T00:31:15;1.00;1.00;0.33
80289;PMS7003;69592;44.804;-0.550;2023-04-29T00:33:40;1.00;1.00;0.00
80289;PMS7003;69592;44.804;-0.550;2023-04-29T00:36:06;0.67;0.67;0.67
80289;PMS7003;69592;44.804;-0.550;2023-04-29T00:38:32;0.00;0.00;0.00
80289;PMS7003;69592;44.804;-0.550;2023-04-29T00:40:58;0.00;0.00;0.00
80289;PMS7003;69592;44.804;-0.550;2023-04-29T00:43:24;0.00;0.00;0.00
80289;PMS7003;69592;44.804;-0.550;2023-04-29T00:45:49;0.00;0.00;0.00
80289;PMS7003;69592;44.804;-0.550;2023-04-29T00:48:15;0.67;0.67;0.00
80289;PMS7003;69592;44.804;-0.550;2023-04-29T00:50:40;1.67;1.00;1.00
80289;PMS7003;69592;44.804;-0.550;2023-04-29T00:53:06;1.00;1.00;1.00
80289;PMS7003;69592;44.804;-0.550;2023-04-29T00:55:33;0.33;0.33;0.33
80289;PMS7003;69592;44.804;-0.550;2023-04-29T00:57:59;1.00;1.00;1.00
80289;PMS7003;69592;44.804;-0.550;2023-04-29T01:00:27;1.00;1.00;0.67
80289;PMS7003;69592;44.804;-0.550;2023-04-29T01:02:53;1.67;0.67;0.00
80289;PMS7003;69592;44.804;-0.550;2023-04-29T01:05:20;1.00;1.00;0.33
80289;PMS7003;69592;44.804;-0.550;2023-04-29T01:10:56;0.00;0.00;0.00
80289;PMS7003;69592;44.804;-0.550;2023-04-29T01:13:54;0.67;0.67;0.67
80289;PMS7003;69592;44.804;-0.550;2023-04-29T01:18:53;1.00;1.00;1.00
80289;PMS7003;69592;44.804;-0.550;2023-04-29T01:21:23;1.00;1.00;0.00
80289;PMS7003;69592;44.804;-0.550;2023-04-29T01:23:49;0.00;0.00;0.00
80289;PMS7003;69592;44.804;-0.550;2023-04-29T01:26:20;0.00;0.00;0.00
80289;PMS7003;69592;44.804;-0.550;2023-04-29T01:31:18;0.00;0.00;0.00
80289;PMS7003;69592;44.804;-0.550;2023-04-29T01:42:06;0.00;0.00;0.00
80289;PMS7003;69592;44.804;-0.550;2023-04-29T01:44:39;0.00;0.00;0.00
80289;PMS7003;69592;44.804;-0.550;2023-04-29T01:47:06;1.67;1.67;1.00
80289;PMS7003;69592;44.804;-0.550;2023-04-29T01:49:36;1.00;1.00;0.00
80289;PMS7003;69592;44.804;-0.550;2023-04-29T01:52:02;1.00;1.00;1.00
80289;PMS7003;69592;44.804;-0.550;2023-04-29T01:54:28;0.33;0.33;0.00
80289;PMS7003;69592;44.804;-0.550;2023-04-29T01:56:53;0.33;0.33;0.00
80289;PMS7003;69592;44.804;-0.550;2023-04-29T01:59:19;0.33;0.00;0.00
80289;PMS7003;69592;44.804;-0.550;2023-04-29T02:01:44;0.33;0.33;0.00
80289;PMS7003;69592;44.804;-0.550;2023-04-29T02:04:10;0.33;0.33;0.00
80289;PMS7003;69592;44.804;-0.550;2023-04-29T02:06:35;1.00;1.00;1.00
80289;PMS7003;69592;44.804;-0.550;2023-04-29T02:09:00;1.00;1.00;1.00
80289;PMS7003;69592;44.804;-0.550;2023-04-29T02:11:26;0.00;0.00;0.00
80289;PMS7003;69592;44.804;-0.550;2023-04-29T02:13:51;0.00;0.00;0.00
80289;PMS7003;69592;44.804;-0.550;2023-04-29T02:16:18;1.00;1.00;1.00
80289;PMS7003;69592;44.804;-0.550;2023-04-29T02:18:44;0.67;0.67;0.67
80289;PMS7003;69592;44.804;-0.550;2023-04-29T02:21:10;1.00;1.00;1.00
80289;PMS7003;69592;44.804;-0.550;2023-04-29T02:23:36;0.00;0.00;0.00
80289;PMS7003;69592;44.804;-0.550;2023-04-29T02:26:01;1.00;1.00;0.33
80289;PMS7003;69592;44.804;-0.550;2023-04-29T02:28:30;0.33;0.33;0.00
80289;PMS7003;69592;44.804;-0.550;2023-04-29T02:30:55;2.00;0.00;0.00
80289;PMS7003;69592;44.804;-0.550;2023-04-29T02:33:21;1.00;1.00;1.00
80289;PMS7003;69592;44.804;-0.550;2023-04-29T02:35:47;1.00;1.00;1.00
80289;PMS7003;69592;44.804;-0.550;2023-04-29T02:38:13;0.00;0.00;0.00
80289;PMS7003;69592;44.804;-0.550;2023-04-29T02:40:42;1.00;1.00;1.00
80289;PMS7003;69592;44.804;-0.550;2023-04-29T02:43:08;0.67;0.00;0.00
80289;PMS7003;69592;44.804;-0.550;2023-04-29T02:45:34;0.00;0.00;0.00
80289;PMS7003;69592;44.804;-0.550;2023-04-29T02:48:00;1.00;1.00;0.33
80289;PMS7003;69592;44.804;-0.550;2023-04-29T02:50:25;0.00;0.00;0.00
80289;PMS7003;69592;44.804;-0.550;2023-04-29T02:52:51;1.00;1.00;1.00
80289;PMS7003;69592;44.804;-0.550;2023-04-29T02:55:16;1.00;1.00;1.00
80289;PMS7003;69592;44.804;-0.550;2023-04-29T02:57:42;1.00;1.00;1.00
80289;PMS7003;69592;44.804;-0.550;2023-04-29T03:00:08;1.00;1.00;0.00
80289;PMS7003;69592;44.804;-0.550;2023-04-29T03:02:35;1.00;1.00;0.67
80289;PMS7003;69592;44.804;-0.550;2023-04-29T03:05:01;1.00;1.00;1.00
80289;PMS7003;69592;44.804;-0.550;2023-04-29T03:07:30;0.00;0.00;0.00
80289;PMS7003;69592;44.804;-0.550;2023-04-29T03:09:56;0.67;0.67;0.67
80289;PMS7003;69592;44.804;-0.550;2023-04-29T03:12:23;1.00;1.00;0.67
80289;PMS7003;69592;44.804;-0.550;2023-04-29T03:14:48;1.00;1.00;1.00
80289;PMS7003;69592;44.804;-0.550;2023-04-29T03:17:17;1.00;1.00;1.00
80289;PMS7003;69592;44.804;-0.550;2023-04-29T03:19:42;0.33;0.33;0.00
80289;PMS7003;69592;44.804;-0.550;2023-04-29T03:22:08;1.00;1.00;1.00
80289;PMS7003;69592;44.804;-0.550;2023-04-29T03:24:35;1.00;1.00;1.00
80289;PMS7003;69592;44.804;-0.550;2023-04-29T03:27:01;1.00;1.00;0.00
80289;PMS7003;69592;44.804;-0.550;2023-04-29T03:29:26;1.00;1.00;1.00
80289;PMS7003;69592;44.804;-0.550;2023-04-29T03:31:52;0.33;0.33;0.00
80289;PMS7003;69592;44.804;-0.550;2023-04-29T03:34:18;1.00;1.00;1.00
80289;PMS7003;69592;44.804;-0.550;2023-04-29T03:36:44;1.00;1.00;0.00
80289;PMS7003;69592;44.804;-0.550;2023-04-29T03:39:09;2.00;2.00;1.33
80289;PMS7003;69592;44.804;-0.550;2023-04-29T03:41:36;1.00;1.00;1.00
80289;PMS7003;69592;44.804;-0.550;2023-04-29T03:44:02;2.00;2.00;1.33
80289;PMS7003;69592;44.804;-0.550;2023-04-29T03:46:28;1.67;1.67;1.67
80289;PMS7003;69592;44.804;-0.550;2023-04-29T03:48:53;1.00;1.00;1.00
80289;PMS7003;69592;44.804;-0.550;2023-04-29T03:51:20;2.00;2.00;1.00
80289;PMS7003;69592;44.804;-0.550;2023-04-29T03:53:46;0.00;0.00;0.00
80289;PMS7003;69592;44.804;-0.550;2023-04-29T03:56:12;1.00;1.00;1.00
80289;PMS7003;69592;44.804;-0.550;2023-04-29T03:58:37;1.00;1.00;1.00
80289;PMS7003;69592;44.804;-0.550;2023-04-29T04:01:03;1.67;1.67;1.67
80289;PMS7003;69592;44.804;-0.550;2023-04-29T04:03:28;1.33;1.33;1.00
80289;PMS7003;69592;44.804;-0.550;2023-04-29T04:05:54;1.33;1.33;1.00
80289;PMS7003;69592;44.804;-0.550;2023-04-29T04:08:19;1.00;1.00;1.00
80289;PMS7003;69592;44.804;-0.550;2023-04-29T04:10:45;1.00;1.00;1.00
80289;PMS7003;69592;44.804;-0.550;2023-04-29T04:13:10;1.00;1.00;1.00
80289;PMS7003;69592;44.804;-0.550;2023-04-29T04:15:36;2.00;2.00;2.00
80289;PMS7003;69592;44.804;-0.550;2023-04-29T04:18:01;2.00;2.00;2.00
80289;PMS7003;69592;44.804;-0.550;2023-04-29T04:20:27;2.00;2.00;2.00
80289;PMS7003;69592;44.804;-0.550;2023-04-29T04:22:52;2.00;2.00;1.33
80289;PMS7003;69592;44.804;-0.550;2023-04-29T04:25:18;1.00;1.00;1.00
80289;PMS7003;69592;44.804;-0.550;2023-04-29T04:27:44;3.67;2.00;2.00
80289;PMS7003;69592;44.804;-0.550;2023-04-29T04:30:09;4.67;2.00;2.00
80289;PMS7003;69592;44.804;-0.550;2023-04-29T04:32:35;2.00;2.00;2.00
80289;PMS7003;69592;44.804;-0.550;2023-04-29T04:35:01;1.00;1.00;1.00
80289;PMS7003;69592;44.804;-0.550;2023-04-29T04:37:26;2.00;1.00;1.00
80289;PMS7003;69592;44.804;-0.550;2023-04-29T04:39:52;2.00;2.00;2.00
80289;PMS7003;69592;44.804;-0.550;2023-04-29T04:42:17;2.00;2.00;1.67
80289;PMS7003;69592;44.804;-0.550;2023-04-29T04:44:43;2.00;2.00;1.00
80289;PMS7003;69592;44.804;-0.550;2023-04-29T04:47:09;1.00;1.00;1.00
80289;PMS7003;69592;44.804;-0.550;2023-04-29T04:49:35;1.33;1.33;1.00
80289;PMS7003;69592;44.804;-0.550;2023-04-29T04:52:00;1.00;1.00;1.00
80289;PMS7003;69592;44.804;-0.550;2023-04-29T04:54:26;1.00;1.00;1.00
80289;PMS7003;69592;44.804;-0.550;2023-04-29T04:56:51;2.67;2.00;2.00
80289;PMS7003;69592;44.804;-0.550;2023-04-29T04:59:17;2.00;2.00;2.00
80289;PMS7003;69592;44.804;-0.550;2023-04-29T05:01:42;3.67;3.67;3.00
80289;PMS7003;69592;44.804;-0.550;2023-04-29T05:04:08;5.00;4.00;3.00
80289;PMS7003;69592;44.804;-0.550;2023-04-29T05:06:34;3.33;2.67;2.00
80289;PMS7003;69592;44.804;-0.550;2023-04-29T05:08:59;4.00;2.00;2.00
80289;PMS7003;69592;44.804;-0.550;2023-04-29T05:11:25;2.00;2.00;2.00
80289;PMS7003;69592;44.804;-0.550;2023-04-29T05:13:50;2.00;2.00;1.33
80289;PMS7003;69592;44.804;-0.550;2023-04-29T05:16:15;1.00;1.00;1.00
80289;PMS7003;69592;44.804;-0.550;2023-04-29T05:18:42;1.50;1.50;1.00
80289;PMS7003;69592;44.804;-0.550;2023-04-29T05:21:09;3.00;3.00;2.00
80289;PMS7003;69592;44.804;-0.550;2023-04-29T05:23:35;2.00;2.00;2.00
80289;PMS7003;69592;44.804;-0.550;2023-04-29T05:26:00;2.00;2.00;2.00
80289;PMS7003;69592;44.804;-0.550;2023-04-29T05:28:25;3.00;2.00;2.00
80289;PMS7003;69592;44.804;-0.550;2023-04-29T05:30:51;1.00;1.00;1.00
80289;PMS7003;69592;44.804;-0.550;2023-04-29T05:33:16;3.00;2.00;2.00
80289;PMS7003;69592;44.804;-0.550;2023-04-29T05:35:42;2.67;2.67;2.00
80289;PMS7003;69592;44.804;-0.550;2023-04-29T05:38:07;2.00;2.00;2.00
80289;PMS7003;69592;44.804;-0.550;2023-04-29T05:40:33;2.67;2.67;2.67
80289;PMS7003;69592;44.804;-0.550;2023-04-29T05:42:58;2.00;2.00;2.00
80289;PMS7003;69592;44.804;-0.550;2023-04-29T05:45:24;3.33;2.00;1.67
80289;PMS7003;69592;44.804;-0.550;2023-04-29T05:47:49;4.67;3.67;3.00
80289;PMS7003;69592;44.804;-0.550;2023-04-29T05:50:15;3.00;3.00;2.00
80289;PMS7003;69592;44.804;-0.550;2023-04-29T05:52:40;1.00;1.00;0.00
80289;PMS7003;69592;44.804;-0.550;2023-04-29T05:55:06;2.00;2.00;2.00
80289;PMS7003;69592;44.804;-0.550;2023-04-29T05:57:31;3.33;3.00;2.00
80289;PMS7003;69592;44.804;-0.550;2023-04-29T05:59:57;2.00;1.00;1.00
80289;PMS7003;69592;44.804;-0.550;2023-04-29T06:02:24;2.00;2.00;2.00
80289;PMS7003;69592;44.804;-0.550;2023-04-29T06:04:49;2.67;2.67;2.00
80289;PMS7003;69592;44.804;-0.550;2023-04-29T06:07:15;3.00;3.00;3.00
80289;PMS7003;69592;44.804;-0.550;2023-04-29T06:09:41;3.00;3.00;2.00
80289;PMS7003;69592;44.804;-0.550;2023-04-29T06:12:08;1.00;1.00;1.00
80289;PMS7003;69592;44.804;-0.550;2023-04-29T06:14:33;3.33;2.33;2.00
80289;PMS7003;69592;44.804;-0.550;2023-04-29T06:16:59;3.00;3.00;2.00
80289;PMS7003;69592;44.804;-0.550;2023-04-29T06:19:24;2.33;2.33;2.00
80289;PMS7003;69592;44.804;-0.550;2023-04-29T06:21:50;2.67;2.67;2.00
80289;PMS7003;69592;44.804;-0.550;2023-04-29T06:24:15;3.00;3.00;3.00
80289;PMS7003;69592;44.804;-0.550;2023-04-29T06:26:41;2.00;2.00;1.33
80289;PMS7003;69592;44.804;-0.550;2023-04-29T06:29:06;2.00;2.00;2.00
80289;PMS7003;69592;44.804;-0.550;2023-04-29T06:31:32;3.00;2.00;2.00
80289;PMS7003;69592;44.804;-0.550;2023-04-29T06:33:58;5.00;3.00;2.00
80289;PMS7003;69592;44.804;-0.550;2023-04-29T06:36:23;2.00;2.00;2.00
80289;PMS7003;69592;44.804;-0.550;2023-04-29T06:38:48;0.00;0.00;0.00
80289;PMS7003;69592;44.804;-0.550;2023-04-29T06:41:14;2.00;2.00;2.00
80289;PMS7003;69592;44.804;-0.550;2023-04-29T06:43:39;2.33;2.33;1.67
80289;PMS7003;69592;44.804;-0.550;2023-04-29T06:46:07;3.00;3.00;2.67
80289;PMS7003;69592;44.804;-0.550;2023-04-29T06:48:32;2.00;2.00;1.67
80289;PMS7003;69592;44.804;-0.550;2023-04-29T06:50:58;3.33;3.00;2.67
80289;PMS7003;69592;44.804;-0.550;2023-04-29T06:53:24;3.00;3.00;3.00
80289;PMS7003;69592;44.804;-0.550;2023-04-29T06:55:49;3.00;3.00;2.00
80289;PMS7003;69592;44.804;-0.550;2023-04-29T06:58:15;6.00;3.00;2.33
80289;PMS7003;69592;44.804;-0.550;2023-04-29T07:00:45;3.00;3.00;2.00
80289;PMS7003;69592;44.804;-0.550;2023-04-29T07:03:12;3.00;3.00;3.00
80289;PMS7003;69592;44.804;-0.550;2023-04-29T07:05:39;3.00;3.00;2.00
80289;PMS7003;69592;44.804;-0.550;2023-04-29T07:08:06;2.00;2.00;2.00
80289;PMS7003;69592;44.804;-0.550;2023-04-29T07:10:32;4.00;3.00;2.00
80289;PMS7003;69592;44.804;-0.550;2023-04-29T07:12:57;3.67;3.67;3.00
80289;PMS7003;69592;44.804;-0.550;2023-04-29T07:15:24;3.00;3.00;3.00
80289;PMS7003;69592;44.804;-0.550;2023-04-29T07:17:53;2.00;2.00;2.00
80289;PMS7003;69592;44.804;-0.550;2023-04-29T07:20:19;6.67;5.67;4.00
80289;PMS7003;69592;44.804;-0.550;2023-04-29T07:22:44;6.33;6.00;4.33
80289;PMS7003;69592;44.804;-0.550;2023-04-29T07:25:10;3.33;2.00;1.33
80289;PMS7003;69592;44.804;-0.550;2023-04-29T07:27:35;4.33;3.67;3.33
80289;PMS7003;69592;44.804;-0.550;2023-04-29T07:30:02;5.67;4.00;3.00
80289;PMS7003;69592;44.804;-0.550;2023-04-29T07:32:28;5.00;4.00;3.00
80289;PMS7003;69592;44.804;-0.550;2023-04-29T07:34:56;2.33;2.33;2.00
80289;PMS7003;69592;44.804;-0.550;2023-04-29T07:37:21;5.00;5.00;3.67
80289;PMS7003;69592;44.804;-0.550;2023-04-29T07:39:47;7.00;4.00;3.00
80289;PMS7003;69592;44.804;-0.550;2023-04-29T07:42:12;4.33;3.33;3.00
80289;PMS7003;69592;44.804;-0.550;2023-04-29T07:44:37;2.00;2.00;2.00
80289;PMS7003;69592;44.804;-0.550;2023-04-29T07:47:03;7.00;5.00;4.33
80289;PMS7003;69592;44.804;-0.550;2023-04-29T07:49:28;4.00;3.00;2.00
80289;PMS7003;69592;44.804;-0.550;2023-04-29T07:51:54;2.00;2.00;1.67
80289;PMS7003;69592;44.804;-0.550;2023-04-29T07:54:19;4.00;4.00;3.00
80289;PMS7003;69592;44.804;-0.550;2023-04-29T07:56:46;4.00;4.00;3.00
80289;PMS7003;69592;44.804;-0.550;2023-04-29T07:59:11;4.00;2.33;2.00
80289;PMS7003;69592;44.804;-0.550;2023-04-29T08:01:37;3.33;3.33;3.00
80289;PMS7003;69592;44.804;-0.550;2023-04-29T08:04:02;5.00;4.00;4.00
80289;PMS7003;69592;44.804;-0.550;2023-04-29T08:06:28;5.00;5.00;3.67
80289;PMS7003;69592;44.804;-0.550;2023-04-29T08:08:54;3.67;3.67;3.00
80289;PMS7003;69592;44.804;-0.550;2023-04-29T08:11:20;5.00;3.33;2.67
80289;PMS7003;69592;44.804;-0.550;2023-04-29T08:13:48;5.00;4.00;3.00
80289;PMS7003;69592;44.804;-0.550;2023-04-29T08:16:14;4.33;4.33;3.67
80289;PMS7003;69592;44.804;-0.550;2023-04-29T08:18:39;6.00;6.00;5.00
80289;PMS7003;69592;44.804;-0.550;2023-04-29T08:21:05;4.00;4.00;4.00
80289;PMS7003;69592;44.804;-0.550;2023-04-29T08:23:30;4.33;4.00;3.33
80289;PMS7003;69592;44.804;-0.550;2023-04-29T08:25:56;6.00;6.00;4.33
80289;PMS7003;69592;44.804;-0.550;2023-04-29T08:28:23;6.00;3.00;3.00
80289;PMS7003;69592;44.804;-0.550;2023-04-29T08:30:49;4.00;4.00;3.00
80289;PMS7003;69592;44.804;-0.550;2023-04-29T08:33:14;4.00;4.00;3.00
80289;PMS7003;69592;44.804;-0.550;2023-04-29T08:35:40;6.33;4.00;3.33
80289;PMS7003;69592;44.804;-0.550;2023-04-29T08:38:07;4.00;4.00;4.00
80289;PMS7003;69592;44.804;-0.550;2023-04-29T08:40:43;5.00;5.00;3.00
80289;PMS7003;69592;44.804;-0.550;2023-04-29T08:43:12;5.67;5.67;5.00
80289;PMS7003;69592;44.804;-0.550;2023-04-29T08:45:40;5.00;4.00;4.00
80289;PMS7003;69592;44.804;-0.550;2023-04-29T08:48:06;5.00;5.00;4.00
80289;PMS7003;69592;44.804;-0.550;2023-04-29T08:50:36;4.00;4.00;4.00
80289;PMS7003;69592;44.804;-0.550;2023-04-29T08:53:04;5.00;4.00;4.00
80289;PMS7003;69592;44.804;-0.550;2023-04-29T08:55:33;5.00;5.00;5.00
80289;PMS7003;69592;44.804;-0.550;2023-04-29T08:58:00;5.33;5.33;5.00
80289;PMS7003;69592;44.804;-0.550;2023-04-29T09:00:26;4.33;4.33;3.33
80289;PMS7003;69592;44.804;-0.550;2023-04-29T09:02:55;6.00;6.00;5.00
80289;PMS7003;69592;44.804;-0.550;2023-04-29T09:05:21;5.00;5.00;4.33
80289;PMS7003;69592;44.804;-0.550;2023-04-29T09:07:49;4.33;4.33;4.00
80289;PMS7003;69592;44.804;-0.550;2023-04-29T09:10:15;6.33;6.00;4.33
80289;PMS7003;69592;44.804;-0.550;2023-04-29T09:12:41;5.00;5.00;4.00
80289;PMS7003;69592;44.804;-0.550;2023-04-29T09:15:07;2.00;2.00;2.00
80289;PMS7003;69592;44.804;-0.550;2023-04-29T09:17:43;4.00;4.00;3.00
80289;PMS7003;69592;44.804;-0.550;2023-04-29T09:25:20;5.00;5.00;4.00
80289;PMS7003;69592;44.804;-0.550;2023-04-29T09:27:46;7.00;7.00;5.33
80289;PMS7003;69592;44.804;-0.550;2023-04-29T09:30:11;5.67;5.67;3.67
80289;PMS7003;69592;44.804;-0.550;2023-04-29T09:32:37;4.67;4.33;4.00
80289;PMS7003;69592;44.804;-0.550;2023-04-29T09:37:49;5.00;5.00;4.00
80289;PMS7003;69592;44.804;-0.550;2023-04-29T09:40:26;5.00;4.33;3.33
80289;PMS7003;69592;44.804;-0.550;2023-04-29T09:42:54;6.33;4.67;3.67
80289;PMS7003;69592;44.804;-0.550;2023-04-29T09:48:01;5.33;5.33;4.33
80289;PMS7003;69592;44.804;-0.550;2023-04-29T09:50:28;7.67;7.67;5.00
80289;PMS7003;69592;44.804;-0.550;2023-04-29T09:52:54;6.00;6.00;4.33
80289;PMS7003;69592;44.804;-0.550;2023-04-29T09:55:20;6.00;6.00;5.00
80289;PMS7003;69592;44.804;-0.550;2023-04-29T09:57:45;7.67;6.67;5.00
80289;PMS7003;69592;44.804;-0.550;2023-04-29T10:00:14;7.00;6.33;5.00
80289;PMS7003;69592;44.804;-0.550;2023-04-29T10:02:44;10.00;7.33;5.00
80289;PMS7003;69592;44.804;-0.550;2023-04-29T10:05:11;8.00;7.00;6.00
80289;PMS7003;69592;44.804;-0.550;2023-04-29T10:07:39;5.33;5.33;4.33
80289;PMS7003;69592;44.804;-0.550;2023-04-29T10:10:05;9.00;8.00;7.00
80289;PMS7003;69592;44.804;-0.550;2023-04-29T10:12:35;10.67;7.33;6.00
80289;PMS7003;69592;44.804;-0.550;2023-04-29T10:15:03;8.00;7.00;6.00
80289;PMS7003;69592;44.804;-0.550;2023-04-29T10:17:57;6.33;6.33;5.00
80289;PMS7003;69592;44.804;-0.550;2023-04-29T10:20:27;8.00;8.00;5.67
80289;PMS7003;69592;44.804;-0.550;2023-04-29T10:22:54;6.33;6.33;6.00
80289;PMS7003;69592;44.804;-0.550;2023-04-29T10:25:21;6.00;5.00;5.00
80289;PMS7003;69592;44.804;-0.550;2023-04-29T10:27:49;7.00;5.00;4.67
80289;PMS7003;69592;44.804;-0.550;2023-04-29T10:30:17;5.33;5.33;4.33
80289;PMS7003;69592;44.804;-0.550;2023-04-29T10:32:44;7.00;6.00;5.00
80289;PMS7003;69592;44.804;-0.550;2023-04-29T10:35:12;5.00;5.00;5.00
80289;PMS7003;69592;44.804;-0.550;2023-04-29T10:37:41;4.33;4.33;3.33
80289;PMS7003;69592;44.804;-0.550;2023-04-29T10:42:49;8.33;7.67;6.00
80289;PMS7003;69592;44.804;-0.550;2023-04-29T10:45:25;9.00;8.00;6.00
80289;PMS7003;69592;44.804;-0.550;2023-04-29T10:53:13;8.00;7.00;6.00
80289;PMS7003;69592;44.804;-0.550;2023-04-29T10:55:48;8.00;6.67;5.00
80289;PMS7003;69592;44.804;-0.550;2023-04-29T11:00:58;9.33;9.33;8.00
80289;PMS7003;69592;44.804;-0.550;2023-04-29T11:06:11;8.67;8.67;6.00
80289;PMS7003;69592;44.804;-0.550;2023-04-29T11:08:37;8.67;8.00;6.67
80289;PMS7003;69592;44.804;-0.550;2023-04-29T11:11:06;8.33;8.33;6.33
80289;PMS7003;69592;44.804;-0.550;2023-04-29T11:13:36;10.00;10.00;8.33
80289;PMS7003;69592;44.804;-0.550;2023-04-29T11:16:07;16.00;14.00;9.00
80289;PMS7003;69592;44.804;-0.550;2023-04-29T11:18:33;13.00;10.00;8.00
80289;PMS7003;69592;44.804;-0.550;2023-04-29T11:23:28;9.67;9.67;8.00
80289;PMS7003;69592;44.804;-0.550;2023-04-29T11:25:55;10.67;10.00;8.00
80289;PMS7003;69592;44.804;-0.550;2023-04-29T11:28:24;8.00;8.00;6.00
80289;PMS7003;69592;44.804;-0.550;2023-04-29T11:30:52;8.33;8.33;5.67
80289;PMS7003;69592;44.804;-0.550;2023-04-29T11:33:21;11.33;10.00;7.00
80289;PMS7003;69592;44.804;-0.550;2023-04-29T11:35:46;9.00;9.00;6.33
80289;PMS7003;69592;44.804;-0.550;2023-04-29T11:38:12;8.00;8.00;6.67
80289;PMS7003;69592;44.804;-0.550;2023-04-29T11:40:41;8.33;8.33;6.33
80289;PMS7003;69592;44.804;-0.550;2023-04-29T11:43:15;13.67;10.00;7.00
80289;PMS7003;69592;44.804;-0.550;2023-04-29T11:45:43;10.00;10.00;7.00
80289;PMS7003;69592;44.804;-0.550;2023-04-29T11:48:09;6.00;6.00;4.67
80289;PMS7003;69592;44.804;-0.550;2023-04-29T11:50:42;9.33;9.33;7.33
80289;PMS7003;69592;44.804;-0.550;2023-04-29T11:53:08;9.67;9.67;8.00
80289;PMS7003;69592;44.804;-0.550;2023-04-29T11:55:33;13.67;11.67;8.00
80289;PMS7003;69592;44.804;-0.550;2023-04-29T11:57:59;10.00;10.00;8.33
80289;PMS7003;69592;44.804;-0.550;2023-04-29T12:00:24;8.00;8.00;5.33
80289;PMS7003;69592;44.804;-0.550;2023-04-29T12:02:50;8.00;8.00;6.00
80289;PMS7003;69592;44.804;-0.550;2023-04-29T12:05:15;10.00;9.00;6.67
80289;PMS7003;69592;44.804;-0.550;2023-04-29T12:07:42;11.00;9.67;7.33
80289;PMS7003;69592;44.804;-0.550;2023-04-29T12:10:08;8.67;8.00;6.00
80289;PMS7003;69592;44.804;-0.550;2023-04-29T12:12:34;10.00;10.00;7.00
80289;PMS7003;69592;44.804;-0.550;2023-04-29T12:15:03;12.33;12.33;9.00
80289;PMS7003;69592;44.804;-0.550;2023-04-29T12:17:30;10.00;10.00;8.00
80289;PMS7003;69592;44.804;-0.550;2023-04-29T12:19:56;12.00;10.33;7.67
80289;PMS7003;69592;44.804;-0.550;2023-04-29T12:22:21;8.33;7.67;7.00
80289;PMS7003;69592;44.804;-0.550;2023-04-29T12:24:46;11.00;9.00;6.67
80289;PMS7003;69592;44.804;-0.550;2023-04-29T12:27:14;10.00;10.00;8.33
80289;PMS7003;69592;44.804;-0.550;2023-04-29T12:29:40;14.00;11.67;9.00
80289;PMS7003;69592;44.804;-0.550;2023-04-29T12:32:06;12.00;11.67;8.00
80289;PMS7003;69592;44.804;-0.550;2023-04-29T12:34:32;10.00;10.00;8.33
80289;PMS7003;69592;44.804;-0.550;2023-04-29T12:36:58;10.67;10.67;8.00
80289;PMS7003;69592;44.804;-0.550;2023-04-29T12:39:24;13.00;11.33;9.00
80289;PMS7003;69592;44.804;-0.550;2023-04-29T12:41:53;12.33;10.33;8.00
80289;PMS7003;69592;44.804;-0.550;2023-04-29T12:44:20;13.33;13.33;8.00
80289;PMS7003;69592;44.804;-0.550;2023-04-29T12:46:45;13.00;12.00;9.00
80289;PMS7003;69592;44.804;-0.550;2023-04-29T12:49:11;12.00;12.00;9.00
80289;PMS7003;69592;44.804;-0.550;2023-04-29T12:51:36;10.00;10.00;7.67
80289;PMS7003;69592;44.804;-0.550;2023-04-29T12:54:02;10.00;10.00;8.33
80289;PMS7003;69592;44.804;-0.550;2023-04-29T12:56:31;12.33;11.33;9.00
80289;PMS7003;69592;44.804;-0.550;2023-04-29T12:59:04;11.00;10.67;9.00
80289;PMS7003;69592;44.804;-0.550;2023-04-29T13:01:34;10.00;10.00;8.00
80289;PMS7003;69592;44.804;-0.550;2023-04-29T13:04:00;9.00;9.00;7.00
80289;PMS7003;69592;44.804;-0.550;2023-04-29T13:06:25;9.00;9.00;6.33
80289;PMS7003;69592;44.804;-0.550;2023-04-29T13:08:51;9.00;9.00;8.00
80289;PMS7003;69592;44.804;-0.550;2023-04-29T13:11:16;9.67;9.00;6.67
80289;PMS7003;69592;44.804;-0.550;2023-04-29T13:13:42;11.00;10.00;7.67
80289;PMS7003;69592;44.804;-0.550;2023-04-29T13:16:08;10.67;10.67;8.67
80289;PMS7003;69592;44.804;-0.550;2023-04-29T13:18:33;11.33;11.33;8.33
80289;PMS7003;69592;44.804;-0.550;2023-04-29T13:20:59;9.00;9.00;7.33
80289;PMS7003;69592;44.804;-0.550;2023-04-29T13:23:25;8.33;8.33;7.33
80289;PMS7003;69592;44.804;-0.550;2023-04-29T13:25:51;9.00;9.00;6.00
80289;PMS7003;69592;44.804;-0.550;2023-04-29T13:28:16;11.00;10.33;7.00
80289;PMS7003;69592;44.804;-0.550;2023-04-29T13:30:42;9.67;9.67;8.00
80289;PMS7003;69592;44.804;-0.550;2023-04-29T13:33:07;8.00;7.50;6.00
80289;PMS7003;69592;44.804;-0.550;2023-04-29T13:35:33;9.33;9.33;7.00
80289;PMS7003;69592;44.804;-0.550;2023-04-29T13:38:00;11.00;11.00;9.00
80289;PMS7003;69592;44.804;-0.550;2023-04-29T13:40:25;10.00;10.00;8.33
80289;PMS7003;69592;44.804;-0.550;2023-04-29T13:42:51;9.67;9.67;7.00
80289;PMS7003;69592;44.804;-0.550;2023-04-29T13:45:17;9.67;9.67;8.67
80289;PMS7003;69592;44.804;-0.550;2023-04-29T13:47:42;7.00;6.00;5.33
80289;PMS7003;69592;44.804;-0.550;2023-04-29T13:50:08;8.33;8.33;6.00
80289;PMS7003;69592;44.804;-0.550;2023-04-29T13:52:34;11.67;7.33;6.33
80289;PMS7003;69592;44.804;-0.550;2023-04-29T13:54:59;6.00;6.00;5.33
80289;PMS7003;69592;44.804;-0.550;2023-04-29T13:57:25;5.33;5.33;4.33
80289;PMS7003;69592;44.804;-0.550;2023-04-29T13:59:51;6.33;6.33;4.67
80289;PMS7003;69592;44.804;-0.550;2023-04-29T14:02:18;9.33;6.00;5.00
80289;PMS7003;69592;44.804;-0.550;2023-04-29T14:04:45;8.33;7.33;6.00
80289;PMS7003;69592;44.804;-0.550;2023-04-29T14:07:10;10.00;8.00;6.00
80289;PMS7003;69592;44.804;-0.550;2023-04-29T14:09:35;7.33;7.33;6.00
80289;PMS7003;69592;44.804;-0.550;2023-04-29T14:12:01;7.67;7.67;6.33
80289;PMS7003;69592;44.804;-0.550;2023-04-29T14:14:26;9.00;9.00;7.00
80289;PMS7003;69592;44.804;-0.550;2023-04-29T14:16:51;8.00;8.00;6.00
80289;PMS7003;69592;44.804;-0.550;2023-04-29T14:19:17;7.33;7.00;6.00
80289;PMS7003;69592;44.804;-0.550;2023-04-29T14:21:42;7.33;7.33;6.00
80289;PMS7003;69592;44.804;-0.550;2023-04-29T14:24:07;7.00;6.00;6.00
80289;PMS7003;69592;44.804;-0.550;2023-04-29T14:26:33;7.67;7.67;7.33
80289;PMS7003;69592;44.804;-0.550;2023-04-29T14:28:58;8.67;8.33;6.67
80289;PMS7003;69592;44.804;-0.550;2023-04-29T14:31:24;7.67;7.00;5.00
80289;PMS7003;69592;44.804;-0.550;2023-04-29T14:33:52;9.33;8.33;6.33
80289;PMS7003;69592;44.804;-0.550;2023-04-29T14:36:18;10.00;8.67;7.33
80289;PMS7003;69592;44.804;-0.550;2023-04-29T14:38:43;5.00;5.00;4.00
80289;PMS7003;69592;44.804;-0.550;2023-04-29T14:41:09;10.00;10.00;8.00
80289;PMS7003;69592;44.804;-0.550;2023-04-29T14:43:34;7.33;7.33;6.33
80289;PMS7003;69592;44.804;-0.550;2023-04-29T14:46:00;9.67;8.67;6.00